To NAV CANADA Home Page Login to a new session Search on AWWS site Disclaimer Vers la page française équivalente Tips FAQ What's new on the site To the Forecasts and Observations / NOTAM section To "File a Flight Plan" website Publications and other links Update of the User's profile FIC Telephone Numbers My Weather Data Folder Route Weather Data Regional Weather Data Local Weather Data To the Forecasts and Observations / NOTAM section
Request Generated 03/19/2019 at 23:06:21 UTC . Weather information available at that time is displayed.

METAR/TAF

If you find any discrepancies between the coded METAR/TAF and the plain language METAR/TAF please use the coded METAR/TAF. LWIS bulletins are not decoded in plain language.

TORONTO/LESTER B. PEARSON INTL/ON    

METAR CYYZ 192300Z 28008KT 15SM FEW060 SCT260 05/M08 A3031 RMK SC1CI2 SLP273=
METAR
LOCATION
CYYZ - TORONTO/LESTER B. PEARSON INTL/ON
DATE - TIME
19 MARCH 2019 - 2300 UTC
WIND
280 TRUE @ 8  KNOTS
VISIBILITY
15 STAT.  MILES
RUNWAY VISUAL RANGE
WEATHER
CLOUDINESS
FEW CLOUDS (1/8 - 2/8) 6000  FT
SCATTERED CLOUDS (3/8 - 4/8) 26000  FT
TEMP / DEWPOINT
5 C / -8 C
ALTIMETER
30.31 IN HG
RECENT WEATHER
WIND SHEAR

METAR CYYZ 192200Z 29008KT 15SM SCT065 SCT085 BKN260 06/M08 A3031 RMK CU3AC1CI1 LP273=
METAR
LOCATION
CYYZ - TORONTO/LESTER B. PEARSON INTL/ON
DATE - TIME
19 MARCH 2019 - 2200 UTC
WIND
290 TRUE @ 8  KNOTS
VISIBILITY
15 STAT.  MILES
RUNWAY VISUAL RANGE
WEATHER
CLOUDINESS
SCATTERED CLOUDS (3/8 - 4/8) 6500  FT
SCATTERED CLOUDS (3/8 - 4/8) 8500  FT
BROKEN CLOUDS (5/8 - 7/8) 26000  FT
TEMP / DEWPOINT
6 C / -8 C
ALTIMETER
30.31 IN HG
RECENT WEATHER
WIND SHEAR

METAR CYYZ 192100Z 26012KT 15SM SCT065 BKN260 06/M08 A3032 RMK CU4CI1 SLP277=
METAR
LOCATION
CYYZ - TORONTO/LESTER B. PEARSON INTL/ON
DATE - TIME
19 MARCH 2019 - 2100 UTC
WIND
260 TRUE @ 12  KNOTS
VISIBILITY
15 STAT.  MILES
RUNWAY VISUAL RANGE
WEATHER
CLOUDINESS
SCATTERED CLOUDS (3/8 - 4/8) 6500  FT
BROKEN CLOUDS (5/8 - 7/8) 26000  FT
TEMP / DEWPOINT
6 C / -8 C
ALTIMETER
30.32 IN HG
RECENT WEATHER
WIND SHEAR

TAF CYYZ 192038Z 1921/2024 26012KT P6SM BKN070 TEMPO 1921/1922 P6SM -SHRASN BKN050 FM200000 24008KT P6SM FEW070 FM200800 22008KT P6SM FEW050 SCT120 FM201500 21012KT P6SM SCT050 BKN120 RMK NXT FCST BY 200000Z=
TAF
LOCATION

CYYZ - TORONTO/LESTER B. PEARSON INTL/ON
VALIDITY [UTC]
19 MAR - 2038 to
21 MAR - 0000
 
TIMES
[UTC]
WIND
[DEGREES TRUE]
VISIBILITY
[STAT. MILES]
WEATHER
CLOUDINESS
[FEET AGL]
 
19 MAR - 2100 to
20 MAR - 0000
260 @ 12 KNOTS
6+
NIL
7000 BROKEN
TEMPORARY CHANGES
19 MAR - 2100 to
19 MAR - 2200
 
6+
LIGHT RAIN SHOWER
LIGHT SNOW SHOWER
5000 BROKEN
 
20 MAR - 0000 to
20 MAR - 0800
240 @ 8 KNOTS
6+
NIL
7000 FEW
 
20 MAR - 0800 to
20 MAR - 1500
220 @ 8 KNOTS
6+
NIL
5000 FEW
12000 SCATTERED
 
20 MAR - 1500 to
21 MAR - 0000
210 @ 12 KNOTS
6+
NIL
5000 SCATTERED
12000 BROKEN
REMARKS
THE NEXT FORECAST WILL BE ISSUED BY 0000 UTC ON DAY 20


Your time UTC time
Weather data provided by Environment Canada and NAV CANADA